sensor_id;sensor_type;location;lat;lon;timestamp;pressure;altitude;pressure_sealevel;temperature;humidity
70009;BME280;59542;37.950;-122.338;2023-01-16T00:01:25;100308.50;;;10.35;81.69
70009;BME280;59542;37.950;-122.338;2023-01-16T00:03:51;100324.25;;;10.50;80.54
70009;BME280;59542;37.950;-122.338;2023-01-16T00:06:18;100314.28;;;10.57;80.91
70009;BME280;59542;37.950;-122.338;2023-01-16T00:08:44;100304.56;;;10.63;81.05
70009;BME280;59542;37.950;-122.338;2023-01-16T00:11:11;100296.31;;;10.64;81.20
70009;BME280;59542;37.950;-122.338;2023-01-16T00:13:38;100291.13;;;10.69;80.75
70009;BME280;59542;37.950;-122.338;2023-01-16T00:16:06;100293.38;;;10.72;80.84
70009;BME280;59542;37.950;-122.338;2023-01-16T00:18:33;100297.19;;;10.83;80.74
70009;BME280;59542;37.950;-122.338;2023-01-16T00:21:00;100307.22;;;10.88;80.39
70009;BME280;59542;37.950;-122.338;2023-01-16T00:23:26;100303.66;;;10.94;80.50
70009;BME280;59542;37.950;-122.338;2023-01-16T00:25:53;100305.31;;;10.70;81.32
70009;BME280;59542;37.950;-122.338;2023-01-16T00:28:19;100324.97;;;10.82;81.05
70009;BME280;59542;37.950;-122.338;2023-01-16T00:30:45;100317.63;;;10.77;80.99
70009;BME280;59542;37.950;-122.338;2023-01-16T00:33:12;100321.94;;;10.78;81.27
70009;BME280;59542;37.950;-122.338;2023-01-16T00:35:38;100322.69;;;10.86;81.17
70009;BME280;59542;37.950;-122.338;2023-01-16T00:38:05;100320.00;;;10.86;81.22
70009;BME280;59542;37.950;-122.338;2023-01-16T00:40:31;100311.16;;;10.85;81.10
70009;BME280;59542;37.950;-122.338;2023-01-16T00:42:57;100299.34;;;10.93;80.76
70009;BME280;59542;37.950;-122.338;2023-01-16T00:45:24;100295.53;;;10.82;81.09
70009;BME280;59542;37.950;-122.338;2023-01-16T00:47:50;100290.72;;;10.91;81.02
70009;BME280;59542;37.950;-122.338;2023-01-16T00:50:16;100285.03;;;10.80;81.16
70009;BME280;59542;37.950;-122.338;2023-01-16T00:52:42;100264.41;;;11.06;79.82
70009;BME280;59542;37.950;-122.338;2023-01-16T00:55:09;100255.16;;;10.40;83.25
70009;BME280;59542;37.950;-122.338;2023-01-16T00:57:35;100252.84;;;10.69;83.21
70009;BME280;59542;37.950;-122.338;2023-01-16T01:00:02;100240.84;;;10.53;83.69
70009;BME280;59542;37.950;-122.338;2023-01-16T01:02:29;100239.63;;;10.49;83.67
70009;BME280;59542;37.950;-122.338;2023-01-16T01:04:55;100243.00;;;10.63;83.60
70009;BME280;59542;37.950;-122.338;2023-01-16T01:07:21;100260.38;;;10.78;82.69
70009;BME280;59542;37.950;-122.338;2023-01-16T01:09:47;100261.41;;;10.77;82.82
70009;BME280;59542;37.950;-122.338;2023-01-16T01:12:14;100260.31;;;10.60;83.20
70009;BME280;59542;37.950;-122.338;2023-01-16T01:14:40;100261.88;;;10.49;82.18
70009;BME280;59542;37.950;-122.338;2023-01-16T01:17:09;100259.97;;;10.56;82.18
70009;BME280;59542;37.950;-122.338;2023-01-16T01:19:35;100256.72;;;10.48;82.13
70009;BME280;59542;37.950;-122.338;2023-01-16T01:22:02;100253.41;;;10.52;81.57
70009;BME280;59542;37.950;-122.338;2023-01-16T01:24:28;100256.69;;;10.29;82.41
70009;BME280;59542;37.950;-122.338;2023-01-16T01:26:54;100254.34;;;10.40;82.61
70009;BME280;59542;37.950;-122.338;2023-01-16T01:29:20;100264.75;;;10.48;82.58
70009;BME280;59542;37.950;-122.338;2023-01-16T01:31:47;100265.72;;;10.53;82.31
70009;BME280;59542;37.950;-122.338;2023-01-16T01:34:13;100265.53;;;10.55;82.63
70009;BME280;59542;37.950;-122.338;2023-01-16T01:36:39;100258.22;;;10.44;83.09
70009;BME280;59542;37.950;-122.338;2023-01-16T01:39:05;100253.63;;;10.51;82.76
70009;BME280;59542;37.950;-122.338;2023-01-16T01:41:32;100251.50;;;10.35;84.05
70009;BME280;59542;37.950;-122.338;2023-01-16T01:43:58;100241.53;;;10.17;84.36
70009;BME280;59542;37.950;-122.338;2023-01-16T01:46:42;100232.53;;;10.11;85.28
70009;BME280;59542;37.950;-122.338;2023-01-16T01:49:24;100220.44;;;10.34;84.36
70009;BME280;59542;37.950;-122.338;2023-01-16T01:51:53;100224.63;;;10.23;84.37
70009;BME280;59542;37.950;-122.338;2023-01-16T01:54:26;100222.75;;;10.48;83.43
70009;BME280;59542;37.950;-122.338;2023-01-16T01:57:00;100217.72;;;10.09;84.79
70009;BME280;59542;37.950;-122.338;2023-01-16T01:59:36;100220.63;;;10.07;85.20
70009;BME280;59542;37.950;-122.338;2023-01-16T02:02:05;100222.44;;;10.38;83.67
70009;BME280;59542;37.950;-122.338;2023-01-16T02:04:39;100227.84;;;10.31;84.29
70009;BME280;59542;37.950;-122.338;2023-01-16T02:07:08;100229.69;;;10.06;85.06
70009;BME280;59542;37.950;-122.338;2023-01-16T02:09:35;100230.03;;;10.16;84.59
70009;BME280;59542;37.950;-122.338;2023-01-16T02:12:13;100230.41;;;9.95;84.66
70009;BME280;59542;37.950;-122.338;2023-01-16T02:14:42;100227.28;;;9.98;84.38
70009;BME280;59542;37.950;-122.338;2023-01-16T02:17:16;100231.66;;;9.54;85.86
70009;BME280;59542;37.950;-122.338;2023-01-16T02:25:35;100242.53;;;9.59;85.53
70009;BME280;59542;37.950;-122.338;2023-01-16T02:36:26;100206.59;;;9.10;87.20
70009;BME280;59542;37.950;-122.338;2023-01-16T02:39:25;100203.91;;;9.17;88.44
70009;BME280;59542;37.950;-122.338;2023-01-16T02:42:23;100196.69;;;9.24;87.47
70009;BME280;59542;37.950;-122.338;2023-01-16T02:50:17;100184.81;;;9.51;86.47
70009;BME280;59542;37.950;-122.338;2023-01-16T02:57:55;100175.88;;;9.33;87.41
70009;BME280;59542;37.950;-122.338;2023-01-16T03:00:23;100172.63;;;9.31;87.40
70009;BME280;59542;37.950;-122.338;2023-01-16T03:02:50;100158.72;;;9.15;88.45
70009;BME280;59542;37.950;-122.338;2023-01-16T03:05:16;100156.72;;;9.04;88.59
70009;BME280;59542;37.950;-122.338;2023-01-16T03:11:19;100147.66;;;8.60;90.08
70009;BME280;59542;37.950;-122.338;2023-01-16T03:13:55;100144.16;;;8.66;90.33
70009;BME280;59542;37.950;-122.338;2023-01-16T03:19:27;100138.25;;;9.03;89.18
70009;BME280;59542;37.950;-122.338;2023-01-16T03:22:15;100137.03;;;8.98;89.17
70009;BME280;59542;37.950;-122.338;2023-01-16T03:33:02;100162.81;;;9.56;86.05
70009;BME280;59542;37.950;-122.338;2023-01-16T03:35:42;100168.34;;;9.61;85.67
70009;BME280;59542;37.950;-122.338;2023-01-16T03:38:12;100164.63;;;9.62;85.38
70009;BME280;59542;37.950;-122.338;2023-01-16T03:40:43;100158.41;;;9.68;84.95
70009;BME280;59542;37.950;-122.338;2023-01-16T03:45:43;100151.78;;;9.77;84.99
70009;BME280;59542;37.950;-122.338;2023-01-16T03:51:05;100147.94;;;9.35;86.06
70009;BME280;59542;37.950;-122.338;2023-01-16T03:53:38;100144.75;;;9.51;85.36
70009;BME280;59542;37.950;-122.338;2023-01-16T03:56:26;100141.56;;;9.68;84.83
70009;BME280;59542;37.950;-122.338;2023-01-16T03:58:55;100126.41;;;9.62;84.60
70009;BME280;59542;37.950;-122.338;2023-01-16T04:10:39;100108.91;;;9.34;84.52
70009;BME280;59542;37.950;-122.338;2023-01-16T04:13:19;100104.41;;;9.35;85.43
70009;BME280;59542;37.950;-122.338;2023-01-16T04:15:52;100099.47;;;9.32;86.41
70009;BME280;59542;37.950;-122.338;2023-01-16T04:18:24;100091.03;;;9.35;87.18
70009;BME280;59542;37.950;-122.338;2023-01-16T04:20:51;100091.69;;;9.30;87.89
70009;BME280;59542;37.950;-122.338;2023-01-16T04:23:18;100084.09;;;9.27;87.27
70009;BME280;59542;37.950;-122.338;2023-01-16T04:25:45;100082.34;;;9.46;85.89
70009;BME280;59542;37.950;-122.338;2023-01-16T04:28:11;100066.38;;;9.08;87.61
70009;BME280;59542;37.950;-122.338;2023-01-16T04:30:38;100068.28;;;9.25;86.51
70009;BME280;59542;37.950;-122.338;2023-01-16T04:33:04;100059.47;;;9.25;87.64
70009;BME280;59542;37.950;-122.338;2023-01-16T04:35:31;100063.56;;;9.52;85.85
70009;BME280;59542;37.950;-122.338;2023-01-16T04:37:58;100066.88;;;9.48;85.23
70009;BME280;59542;37.950;-122.338;2023-01-16T04:40:24;100051.56;;;9.37;85.79
70009;BME280;59542;37.950;-122.338;2023-01-16T04:42:51;100045.47;;;9.30;86.25
70009;BME280;59542;37.950;-122.338;2023-01-16T04:45:17;100043.88;;;8.90;87.80
70009;BME280;59542;37.950;-122.338;2023-01-16T04:47:47;100041.16;;;8.97;88.10
70009;BME280;59542;37.950;-122.338;2023-01-16T04:50:14;100023.03;;;8.74;88.86
70009;BME280;59542;37.950;-122.338;2023-01-16T04:52:42;100024.72;;;8.68;90.10
70009;BME280;59542;37.950;-122.338;2023-01-16T04:55:09;100021.47;;;8.60;90.79
70009;BME280;59542;37.950;-122.338;2023-01-16T04:57:36;100019.34;;;8.75;90.46
70009;BME280;59542;37.950;-122.338;2023-01-16T05:00:04;100014.75;;;8.82;89.71
70009;BME280;59542;37.950;-122.338;2023-01-16T05:02:31;100011.59;;;8.60;90.91
70009;BME280;59542;37.950;-122.338;2023-01-16T05:04:57;99991.75;;;8.56;92.04
70009;BME280;59542;37.950;-122.338;2023-01-16T05:07:23;99992.94;;;8.92;90.29
70009;BME280;59542;37.950;-122.338;2023-01-16T05:09:52;100009.66;;;9.12;88.64
70009;BME280;59542;37.950;-122.338;2023-01-16T05:12:18;99998.28;;;8.92;88.87
70009;BME280;59542;37.950;-122.338;2023-01-16T05:14:45;99986.97;;;8.96;89.13
70009;BME280;59542;37.950;-122.338;2023-01-16T05:17:11;99975.47;;;8.96;89.40
70009;BME280;59542;37.950;-122.338;2023-01-16T05:19:37;99970.38;;;8.94;89.42
70009;BME280;59542;37.950;-122.338;2023-01-16T05:22:03;99970.78;;;8.91;89.97
70009;BME280;59542;37.950;-122.338;2023-01-16T05:24:30;99969.28;;;8.70;90.72
70009;BME280;59542;37.950;-122.338;2023-01-16T05:26:56;99956.88;;;8.83;90.02
70009;BME280;59542;37.950;-122.338;2023-01-16T05:29:22;99963.00;;;8.90;89.61
70009;BME280;59542;37.950;-122.338;2023-01-16T05:31:48;99959.66;;;8.69;89.73
70009;BME280;59542;37.950;-122.338;2023-01-16T05:34:15;99959.41;;;8.71;89.92
70009;BME280;59542;37.950;-122.338;2023-01-16T05:36:41;99965.84;;;8.63;90.32
70009;BME280;59542;37.950;-122.338;2023-01-16T05:39:07;99959.56;;;8.51;90.82
70009;BME280;59542;37.950;-122.338;2023-01-16T05:41:35;99963.69;;;8.47;90.81
70009;BME280;59542;37.950;-122.338;2023-01-16T05:44:01;99968.09;;;8.66;90.48
70009;BME280;59542;37.950;-122.338;2023-01-16T05:46:27;99965.97;;;8.37;90.74
70009;BME280;59542;37.950;-122.338;2023-01-16T05:48:53;99968.88;;;8.29;91.03
70009;BME280;59542;37.950;-122.338;2023-01-16T05:51:20;99963.41;;;8.10;92.03
70009;BME280;59542;37.950;-122.338;2023-01-16T05:53:50;99965.91;;;8.05;92.82
70009;BME280;59542;37.950;-122.338;2023-01-16T05:56:21;99961.38;;;7.99;92.49
70009;BME280;59542;37.950;-122.338;2023-01-16T05:58:47;99953.69;;;8.36;92.64
70009;BME280;59542;37.950;-122.338;2023-01-16T06:01:14;99947.31;;;8.37;91.46
70009;BME280;59542;37.950;-122.338;2023-01-16T06:03:40;99942.78;;;8.37;91.56
70009;BME280;59542;37.950;-122.338;2023-01-16T06:06:06;99945.00;;;8.47;90.89
70009;BME280;59542;37.950;-122.338;2023-01-16T06:08:32;99939.84;;;8.52;90.06
70009;BME280;59542;37.950;-122.338;2023-01-16T06:10:59;99930.47;;;8.43;91.18
70009;BME280;59542;37.950;-122.338;2023-01-16T06:13:25;99945.09;;;8.65;90.41
70009;BME280;59542;37.950;-122.338;2023-01-16T06:15:51;99933.25;;;8.61;90.40
70009;BME280;59542;37.950;-122.338;2023-01-16T06:18:17;99935.19;;;8.41;91.63
70009;BME280;59542;37.950;-122.338;2023-01-16T06:20:44;99929.59;;;8.49;91.87
70009;BME280;59542;37.950;-122.338;2023-01-16T06:23:10;99928.84;;;8.35;91.89
70009;BME280;59542;37.950;-122.338;2023-01-16T06:25:36;99917.94;;;8.50;91.80
70009;BME280;59542;37.950;-122.338;2023-01-16T06:28:03;99917.25;;;8.55;92.04
70009;BME280;59542;37.950;-122.338;2023-01-16T06:30:29;99912.09;;;8.60;92.11
70009;BME280;59542;37.950;-122.338;2023-01-16T06:32:55;99903.50;;;8.58;91.91
70009;BME280;59542;37.950;-122.338;2023-01-16T06:35:21;99907.97;;;8.64;92.07
70009;BME280;59542;37.950;-122.338;2023-01-16T06:37:48;99896.72;;;8.62;91.46
70009;BME280;59542;37.950;-122.338;2023-01-16T06:40:14;99892.19;;;8.62;91.56
70009;BME280;59542;37.950;-122.338;2023-01-16T06:42:40;99884.00;;;8.57;91.78
70009;BME280;59542;37.950;-122.338;2023-01-16T06:45:07;99879.63;;;8.38;92.58
70009;BME280;59542;37.950;-122.338;2023-01-16T06:47:33;99873.47;;;8.37;93.16
70009;BME280;59542;37.950;-122.338;2023-01-16T06:49:59;99870.41;;;8.27;94.00
70009;BME280;59542;37.950;-122.338;2023-01-16T06:52:26;99864.25;;;8.40;93.22
70009;BME280;59542;37.950;-122.338;2023-01-16T06:54:52;99857.44;;;8.44;93.12
70009;BME280;59542;37.950;-122.338;2023-01-16T06:57:18;99855.69;;;8.25;93.95
70009;BME280;59542;37.950;-122.338;2023-01-16T06:59:47;99846.97;;;8.42;92.26
70009;BME280;59542;37.950;-122.338;2023-01-16T07:02:16;99837.38;;;8.35;92.23
70009;BME280;59542;37.950;-122.338;2023-01-16T07:04:42;99830.00;;;8.37;92.03
70009;BME280;59542;37.950;-122.338;2023-01-16T07:07:10;99830.63;;;8.39;92.33
70009;BME280;59542;37.950;-122.338;2023-01-16T07:09:36;99825.28;;;8.39;92.69
70009;BME280;59542;37.950;-122.338;2023-01-16T07:12:02;99821.44;;;8.28;93.38
70009;BME280;59542;37.950;-122.338;2023-01-16T07:14:29;99804.28;;;8.17;93.99
70009;BME280;59542;37.950;-122.338;2023-01-16T07:17:13;99798.41;;;8.02;94.12
70009;BME280;59542;37.950;-122.338;2023-01-16T07:19:58;99792.00;;;8.10;94.48
70009;BME280;59542;37.950;-122.338;2023-01-16T07:22:43;99792.75;;;8.24;94.38
70009;BME280;59542;37.950;-122.338;2023-01-16T07:25:14;99786.59;;;8.23;93.81
70009;BME280;59542;37.950;-122.338;2023-01-16T07:27:43;99784.84;;;8.42;91.85
70009;BME280;59542;37.950;-122.338;2023-01-16T07:30:14;99777.56;;;8.24;93.06
70009;BME280;59542;37.950;-122.338;2023-01-16T07:32:40;99772.22;;;8.24;92.64
70009;BME280;59542;37.950;-122.338;2023-01-16T07:35:07;99765.75;;;8.13;93.46
70009;BME280;59542;37.950;-122.338;2023-01-16T07:37:33;99764.13;;;8.12;93.41
70009;BME280;59542;37.950;-122.338;2023-01-16T07:39:59;99759.84;;;8.05;93.52
70009;BME280;59542;37.950;-122.338;2023-01-16T07:42:26;99763.09;;;8.13;93.01
70009;BME280;59542;37.950;-122.338;2023-01-16T07:44:52;99756.06;;;7.94;92.47
70009;BME280;59542;37.950;-122.338;2023-01-16T07:47:18;99750.31;;;7.90;93.60
70009;BME280;59542;37.950;-122.338;2023-01-16T07:49:44;99744.94;;;7.97;92.13
70009;BME280;59542;37.950;-122.338;2023-01-16T07:52:11;99739.84;;;7.96;91.28
70009;BME280;59542;37.950;-122.338;2023-01-16T07:54:37;99737.72;;;8.04;92.29
70009;BME280;59542;37.950;-122.338;2023-01-16T07:57:06;99737.41;;;7.94;92.98
70009;BME280;59542;37.950;-122.338;2023-01-16T07:59:32;99741.75;;;7.82;93.40
70009;BME280;59542;37.950;-122.338;2023-01-16T08:01:58;99738.25;;;7.88;93.22
70009;BME280;59542;37.950;-122.338;2023-01-16T08:04:24;99735.72;;;7.68;93.92
70009;BME280;59542;37.950;-122.338;2023-01-16T08:06:51;99740.13;;;7.81;93.79
70009;BME280;59542;37.950;-122.338;2023-01-16T08:09:17;99724.44;;;7.66;94.85
70009;BME280;59542;37.950;-122.338;2023-01-16T08:11:43;99712.13;;;7.72;94.81
70009;BME280;59542;37.950;-122.338;2023-01-16T08:14:12;99709.91;;;7.68;95.25
70009;BME280;59542;37.950;-122.338;2023-01-16T08:16:39;99710.41;;;7.84;93.78
70009;BME280;59542;37.950;-122.338;2023-01-16T08:19:06;99699.94;;;7.89;93.95
70009;BME280;59542;37.950;-122.338;2023-01-16T08:21:32;99701.16;;;7.86;92.65
70009;BME280;59542;37.950;-122.338;2023-01-16T08:23:58;99685.66;;;7.77;91.73
70009;BME280;59542;37.950;-122.338;2023-01-16T08:26:24;99682.22;;;7.70;93.07
70009;BME280;59542;37.950;-122.338;2023-01-16T08:28:51;99671.16;;;7.66;93.23
70009;BME280;59542;37.950;-122.338;2023-01-16T08:31:18;99677.88;;;7.44;95.34
70009;BME280;59542;37.950;-122.338;2023-01-16T08:33:45;99664.84;;;7.60;94.80
70009;BME280;59542;37.950;-122.338;2023-01-16T08:36:13;99664.38;;;7.70;94.01
70009;BME280;59542;37.950;-122.338;2023-01-16T08:38:41;99669.66;;;7.77;93.09
70009;BME280;59542;37.950;-122.338;2023-01-16T08:41:08;99669.94;;;7.68;92.50
70009;BME280;59542;37.950;-122.338;2023-01-16T08:43:54;99659.16;;;7.57;93.77
70009;BME280;59542;37.950;-122.338;2023-01-16T08:46:39;99662.41;;;7.59;92.54
70009;BME280;59542;37.950;-122.338;2023-01-16T08:49:24;99664.84;;;7.60;92.20
70009;BME280;59542;37.950;-122.338;2023-01-16T08:52:09;99663.84;;;7.61;92.58
70009;BME280;59542;37.950;-122.338;2023-01-16T08:54:36;99660.22;;;7.49;94.35
70009;BME280;59542;37.950;-122.338;2023-01-16T08:57:02;99650.84;;;7.47;94.19
70009;BME280;59542;37.950;-122.338;2023-01-16T08:59:29;99659.31;;;7.30;94.92
70009;BME280;59542;37.950;-122.338;2023-01-16T09:02:02;99660.31;;;7.36;95.28
70009;BME280;59542;37.950;-122.338;2023-01-16T09:04:29;99668.22;;;7.49;95.24
70009;BME280;59542;37.950;-122.338;2023-01-16T09:06:55;99666.53;;;7.55;93.71
70009;BME280;59542;37.950;-122.338;2023-01-16T09:09:21;99677.03;;;7.50;94.07
70009;BME280;59542;37.950;-122.338;2023-01-16T09:11:56;99676.88;;;7.45;94.82
70009;BME280;59542;37.950;-122.338;2023-01-16T09:14:44;99684.22;;;7.43;95.02
70009;BME280;59542;37.950;-122.338;2023-01-16T09:17:10;99677.16;;;7.61;93.83
70009;BME280;59542;37.950;-122.338;2023-01-16T09:19:36;99680.84;;;7.60;93.55
70009;BME280;59542;37.950;-122.338;2023-01-16T09:22:04;99686.84;;;7.49;94.10
70009;BME280;59542;37.950;-122.338;2023-01-16T09:24:34;99692.34;;;7.61;93.20
70009;BME280;59542;37.950;-122.338;2023-01-16T09:27:01;99691.50;;;7.60;92.89
70009;BME280;59542;37.950;-122.338;2023-01-16T09:29:28;99689.63;;;7.67;92.55
70009;BME280;59542;37.950;-122.338;2023-01-16T09:31:54;99703.97;;;7.66;92.66
70009;BME280;59542;37.950;-122.338;2023-01-16T09:34:20;99708.50;;;7.59;92.47
70009;BME280;59542;37.950;-122.338;2023-01-16T09:36:46;99706.84;;;7.65;92.16
70009;BME280;59542;37.950;-122.338;2023-01-16T09:39:13;99710.94;;;7.67;91.87
70009;BME280;59542;37.950;-122.338;2023-01-16T09:44:50;99704.97;;;7.65;93.07
70009;BME280;59542;37.950;-122.338;2023-01-16T09:47:22;99695.63;;;7.56;92.98
70009;BME280;59542;37.950;-122.338;2023-01-16T09:50:04;99700.31;;;7.61;92.66
70009;BME280;59542;37.950;-122.338;2023-01-16T09:52:34;99703.09;;;7.41;93.60
70009;BME280;59542;37.950;-122.338;2023-01-16T09:55:38;99702.69;;;7.37;93.31
70009;BME280;59542;37.950;-122.338;2023-01-16T09:58:24;99710.84;;;7.43;92.96
70009;BME280;59542;37.950;-122.338;2023-01-16T10:01:16;99714.81;;;7.33;93.18
70009;BME280;59542;37.950;-122.338;2023-01-16T10:03:45;99707.63;;;7.34;93.82
70009;BME280;59542;37.950;-122.338;2023-01-16T10:14:02;99726.94;;;7.16;94.62
70009;BME280;59542;37.950;-122.338;2023-01-16T10:19:58;99735.69;;;7.30;94.40
70009;BME280;59542;37.950;-122.338;2023-01-16T10:29:32;99743.72;;;7.23;95.22
70009;BME280;59542;37.950;-122.338;2023-01-16T10:31:42;99748.63;;;7.20;95.00
70009;BME280;59542;37.950;-122.338;2023-01-16T10:34:23;99764.59;;;7.20;95.42
70009;BME280;59542;37.950;-122.338;2023-01-16T10:36:54;99760.94;;;7.14;95.94
70009;BME280;59542;37.950;-122.338;2023-01-16T10:39:30;99773.56;;;7.32;95.12
70009;BME280;59542;37.950;-122.338;2023-01-16T10:45:24;99800.44;;;7.24;94.81
70009;BME280;59542;37.950;-122.338;2023-01-16T10:48:14;99798.38;;;7.19;94.32
70009;BME280;59542;37.950;-122.338;2023-01-16T10:50:59;99803.31;;;7.15;94.56
70009;BME280;59542;37.950;-122.338;2023-01-16T10:53:26;99819.69;;;7.12;96.49
70009;BME280;59542;37.950;-122.338;2023-01-16T10:55:55;99816.22;;;7.12;96.52
70009;BME280;59542;37.950;-122.338;2023-01-16T10:58:28;99819.50;;;7.07;97.51
70009;BME280;59542;37.950;-122.338;2023-01-16T11:01:00;99824.41;;;7.10;97.35
70009;BME280;59542;37.950;-122.338;2023-01-16T11:03:36;99826.03;;;7.05;97.45
70009;BME280;59542;37.950;-122.338;2023-01-16T11:06:08;99824.22;;;7.05;97.88
70009;BME280;59542;37.950;-122.338;2023-01-16T11:08:34;99827.69;;;7.06;97.13
70009;BME280;59542;37.950;-122.338;2023-01-16T11:11:01;99829.13;;;7.08;97.12
70009;BME280;59542;37.950;-122.338;2023-01-16T11:13:28;99827.28;;;7.09;97.10
70009;BME280;59542;37.950;-122.338;2023-01-16T11:16:24;99827.69;;;7.12;96.89
70009;BME280;59542;37.950;-122.338;2023-01-16T11:19:18;99830.97;;;7.08;95.98
70009;BME280;59542;37.950;-122.338;2023-01-16T11:21:52;99828.09;;;7.09;96.40
70009;BME280;59542;37.950;-122.338;2023-01-16T11:24:20;99828.91;;;7.10;96.91
70009;BME280;59542;37.950;-122.338;2023-01-16T11:26:58;99829.53;;;7.12;96.48
70009;BME280;59542;37.950;-122.338;2023-01-16T11:29:28;99833.22;;;7.11;96.51
70009;BME280;59542;37.950;-122.338;2023-01-16T11:32:00;99842.38;;;7.22;95.59
70009;BME280;59542;37.950;-122.338;2023-01-16T11:34:29;99840.16;;;7.19;95.84
70009;BME280;59542;37.950;-122.338;2023-01-16T11:37:00;99840.97;;;7.19;95.58
70009;BME280;59542;37.950;-122.338;2023-01-16T11:39:30;99847.69;;;7.22;95.88
70009;BME280;59542;37.950;-122.338;2023-01-16T11:41:59;99855.50;;;7.23;96.21
70009;BME280;59542;37.950;-122.338;2023-01-16T11:44:56;99851.81;;;7.24;95.85
70009;BME280;59542;37.950;-122.338;2023-01-16T11:47:44;99860.00;;;7.23;94.94
70009;BME280;59542;37.950;-122.338;2023-01-16T11:50:35;99860.22;;;7.28;93.41
70009;BME280;59542;37.950;-122.338;2023-01-16T11:53:01;99863.66;;;7.22;94.37
70009;BME280;59542;37.950;-122.338;2023-01-16T11:55:39;99860.00;;;7.29;94.72
70009;BME280;59542;37.950;-122.338;2023-01-16T11:58:14;99864.50;;;7.29;96.32
70009;BME280;59542;37.950;-122.338;2023-01-16T12:01:04;99859.56;;;7.32;95.84
70009;BME280;59542;37.950;-122.338;2023-01-16T12:03:38;99870.00;;;7.27;95.73
70009;BME280;59542;37.950;-122.338;2023-01-16T12:06:33;99873.91;;;7.31;95.71
70009;BME280;59542;37.950;-122.338;2023-01-16T12:09:25;99885.38;;;7.32;95.65
70009;BME280;59542;37.950;-122.338;2023-01-16T12:14:53;99884.97;;;7.35;95.77
70009;BME280;59542;37.950;-122.338;2023-01-16T12:20:11;99899.50;;;7.39;94.79
70009;BME280;59542;37.950;-122.338;2023-01-16T12:25:33;99899.69;;;7.37;94.89
70009;BME280;59542;37.950;-122.338;2023-01-16T12:37:01;99899.28;;;7.40;93.61
70009;BME280;59542;37.950;-122.338;2023-01-16T12:39:48;99901.50;;;7.44;93.25
70009;BME280;59542;37.950;-122.338;2023-01-16T12:59:54;99892.31;;;7.46;91.60
70009;BME280;59542;37.950;-122.338;2023-01-16T13:04:59;99904.59;;;7.47;91.75
70009;BME280;59542;37.950;-122.338;2023-01-16T13:07:31;99911.94;;;7.52;91.31
70009;BME280;59542;37.950;-122.338;2023-01-16T13:10:29;99911.75;;;7.47;91.41
70009;BME280;59542;37.950;-122.338;2023-01-16T13:13:18;99916.06;;;7.41;92.00
70009;BME280;59542;37.950;-122.338;2023-01-16T13:15:59;99929.16;;;7.43;91.39
70009;BME280;59542;37.950;-122.338;2023-01-16T13:18:38;99926.09;;;7.52;89.90
70009;BME280;59542;37.950;-122.338;2023-01-16T13:21:11;99924.66;;;7.50;91.12
70009;BME280;59542;37.950;-122.338;2023-01-16T13:24:12;99939.00;;;7.55;90.14
70009;BME280;59542;37.950;-122.338;2023-01-16T13:26:40;99939.00;;;7.55;90.35
70009;BME280;59542;37.950;-122.338;2023-01-16T13:29:20;99935.72;;;7.47;91.13
70009;BME280;59542;37.950;-122.338;2023-01-16T13:32:53;99945.13;;;7.49;90.60
70009;BME280;59542;37.950;-122.338;2023-01-16T13:35:07;99939.38;;;7.59;90.06
70009;BME280;59542;37.950;-122.338;2023-01-16T13:41:14;99942.44;;;7.62;89.65
70009;BME280;59542;37.950;-122.338;2023-01-16T13:43:53;99940.19;;;7.59;89.68
70009;BME280;59542;37.950;-122.338;2023-01-16T13:46:38;99933.66;;;7.62;89.18
70009;BME280;59542;37.950;-122.338;2023-01-16T13:49:06;99935.06;;;7.64;89.48
70009;BME280;59542;37.950;-122.338;2023-01-16T13:51:43;99933.19;;;7.72;89.39
70009;BME280;59542;37.950;-122.338;2023-01-16T13:54:21;99938.72;;;7.77;88.39
70009;BME280;59542;37.950;-122.338;2023-01-16T13:57:01;99937.91;;;7.76;88.22
70009;BME280;59542;37.950;-122.338;2023-01-16T14:16:00;99954.03;;;8.01;87.12
70009;BME280;59542;37.950;-122.338;2023-01-16T14:19:00;99970.38;;;8.11;86.46
70009;BME280;59542;37.950;-122.338;2023-01-16T14:21:48;99965.03;;;8.18;84.13
70009;BME280;59542;37.950;-122.338;2023-01-16T14:24:43;99963.13;;;8.25;84.22
70009;BME280;59542;37.950;-122.338;2023-01-16T14:27:15;99969.56;;;8.04;84.48
70009;BME280;59542;37.950;-122.338;2023-01-16T14:29:57;99971.56;;;8.15;84.04
70009;BME280;59542;37.950;-122.338;2023-01-16T14:32:27;99970.78;;;8.08;85.16
70009;BME280;59542;37.950;-122.338;2023-01-16T14:35:15;99981.00;;;8.18;85.13
70009;BME280;59542;37.950;-122.338;2023-01-16T14:37:52;99985.53;;;8.17;84.99
70009;BME280;59542;37.950;-122.338;2023-01-16T14:40:22;99988.56;;;8.28;84.49
70009;BME280;59542;37.950;-122.338;2023-01-16T14:43:14;99995.53;;;8.29;83.53
70009;BME280;59542;37.950;-122.338;2023-01-16T14:46:31;99998.59;;;8.39;82.78
70009;BME280;59542;37.950;-122.338;2023-01-16T14:49:56;99999.44;;;8.26;82.00
70009;BME280;59542;37.950;-122.338;2023-01-16T14:55:40;100016.00;;;8.35;82.58
70009;BME280;59542;37.950;-122.338;2023-01-16T14:58:27;100020.69;;;8.53;81.21
70009;BME280;59542;37.950;-122.338;2023-01-16T15:00:57;100023.59;;;8.31;82.56
70009;BME280;59542;37.950;-122.338;2023-01-16T15:04:00;100033.06;;;8.40;81.47
70009;BME280;59542;37.950;-122.338;2023-01-16T15:06:34;100032.59;;;8.50;81.90
70009;BME280;59542;37.950;-122.338;2023-01-16T15:09:02;100037.13;;;8.43;82.87
70009;BME280;59542;37.950;-122.338;2023-01-16T15:11:36;100040.19;;;8.46;82.96
70009;BME280;59542;37.950;-122.338;2023-01-16T15:14:11;100047.16;;;8.48;83.07
70009;BME280;59542;37.950;-122.338;2023-01-16T15:17:33;100053.31;;;8.48;83.26
70009;BME280;59542;37.950;-122.338;2023-01-16T15:20:28;100061.34;;;8.41;83.71